sensor_id;sensor_type;location;lat;lon;timestamp;temperature;humidity
7248;DHT22;3665;51.034;13.642;2023-09-12T00:23:23;18.10;1.00
7248;DHT22;3665;51.034;13.642;2023-09-12T00:28:11;18.10;1.00
7248;DHT22;3665;51.034;13.642;2023-09-12T00:33:20;18.10;1.00
7248;DHT22;3665;51.034;13.642;2023-09-12T00:38:26;18.00;1.00
7248;DHT22;3665;51.034;13.642;2023-09-12T00:43:28;17.90;1.00
7248;DHT22;3665;51.034;13.642;2023-09-12T01:10:25;17.80;1.00
7248;DHT22;3665;51.034;13.642;2023-09-12T01:15:09;17.60;1.00
7248;DHT22;3665;51.034;13.642;2023-09-12T01:19:58;17.30;1.00
7248;DHT22;3665;51.034;13.642;2023-09-12T01:53:37;17.10;1.00
7248;DHT22;3665;51.034;13.642;2023-09-12T01:58:28;17.00;1.00
7248;DHT22;3665;51.034;13.642;2023-09-12T02:03:31;17.00;1.00
7248;DHT22;3665;51.034;13.642;2023-09-12T02:08:21;16.90;1.00
7248;DHT22;3665;51.034;13.642;2023-09-12T02:13:31;16.90;1.00
7248;DHT22;3665;51.034;13.642;2023-09-12T02:18:19;17.00;1.00
7248;DHT22;3665;51.034;13.642;2023-09-12T02:23:10;17.10;1.00
7248;DHT22;3665;51.034;13.642;2023-09-12T02:27:58;17.10;1.00
7248;DHT22;3665;51.034;13.642;2023-09-12T02:32:44;17.00;1.00
7248;DHT22;3665;51.034;13.642;2023-09-12T02:37:33;17.00;1.00
7248;DHT22;3665;51.034;13.642;2023-09-12T02:42:26;17.00;1.00
7248;DHT22;3665;51.034;13.642;2023-09-12T02:47:26;17.00;1.00
7248;DHT22;3665;51.034;13.642;2023-09-12T03:03:11;17.20;1.00
7248;DHT22;3665;51.034;13.642;2023-09-12T03:08:12;17.30;1.00
7248;DHT22;3665;51.034;13.642;2023-09-12T03:18:55;17.30;1.00
7248;DHT22;3665;51.034;13.642;2023-09-12T03:23:39;17.10;1.00
7248;DHT22;3665;51.034;13.642;2023-09-12T03:28:30;17.00;1.00
7248;DHT22;3665;51.034;13.642;2023-09-12T03:33:18;16.90;1.00
7248;DHT22;3665;51.034;13.642;2023-09-12T03:38:10;16.80;1.00
7248;DHT22;3665;51.034;13.642;2023-09-12T04:00:00;17.00;1.00
7248;DHT22;3665;51.034;13.642;2023-09-12T04:10:21;16.70;1.00
7248;DHT22;3665;51.034;13.642;2023-09-12T04:15:29;16.50;1.00
7248;DHT22;3665;51.034;13.642;2023-09-12T04:20:33;16.60;1.00
7248;DHT22;3665;51.034;13.642;2023-09-12T04:25:36;16.70;1.00
7248;DHT22;3665;51.034;13.642;2023-09-12T04:30:38;16.70;1.00
7248;DHT22;3665;51.034;13.642;2023-09-12T04:35:26;16.70;1.00
7248;DHT22;3665;51.034;13.642;2023-09-12T04:40:13;16.60;1.00
7248;DHT22;3665;51.034;13.642;2023-09-12T04:45:01;16.60;1.00
7248;DHT22;3665;51.034;13.642;2023-09-12T04:50:06;16.50;1.00
7248;DHT22;3665;51.034;13.642;2023-09-12T04:54:51;16.50;1.00
7248;DHT22;3665;51.034;13.642;2023-09-12T05:10:25;16.60;1.00
7248;DHT22;3665;51.034;13.642;2023-09-12T05:15:09;16.60;1.00
7248;DHT22;3665;51.034;13.642;2023-09-12T05:19:59;16.80;1.00
7248;DHT22;3665;51.034;13.642;2023-09-12T05:24:45;17.00;1.00
7248;DHT22;3665;51.034;13.642;2023-09-12T05:29:47;17.10;1.00
7248;DHT22;3665;51.034;13.642;2023-09-12T05:34:40;17.20;1.00
7248;DHT22;3665;51.034;13.642;2023-09-12T05:39:25;17.20;1.00
7248;DHT22;3665;51.034;13.642;2023-09-12T05:44:12;17.30;1.00
7248;DHT22;3665;51.034;13.642;2023-09-12T05:49:02;17.50;1.00
7248;DHT22;3665;51.034;13.642;2023-09-12T05:54:05;17.70;1.00
7248;DHT22;3665;51.034;13.642;2023-09-12T05:58:52;17.90;1.00
7248;DHT22;3665;51.034;13.642;2023-09-12T06:25:18;19.20;1.00
7248;DHT22;3665;51.034;13.642;2023-09-12T06:30:09;19.50;1.00
7248;DHT22;3665;51.034;13.642;2023-09-12T06:35:47;19.80;1.00
7248;DHT22;3665;51.034;13.642;2023-09-12T07:13:48;22.40;1.00
7248;DHT22;3665;51.034;13.642;2023-09-12T07:18:38;22.90;1.00
7248;DHT22;3665;51.034;13.642;2023-09-12T07:23:24;23.50;1.00
7248;DHT22;3665;51.034;13.642;2023-09-12T07:28:14;23.80;1.00
7248;DHT22;3665;51.034;13.642;2023-09-12T08:12:00;26.70;1.00
7248;DHT22;3665;51.034;13.642;2023-09-12T08:17:01;27.30;1.00
7248;DHT22;3665;51.034;13.642;2023-09-12T08:21:49;27.80;1.00
7248;DHT22;3665;51.034;13.642;2023-09-12T08:26:36;27.90;1.00
7248;DHT22;3665;51.034;13.642;2023-09-12T08:31:39;28.00;1.00
7248;DHT22;3665;51.034;13.642;2023-09-12T08:36:36;28.40;1.00
7248;DHT22;3665;51.034;13.642;2023-09-12T08:41:32;28.40;1.00
7248;DHT22;3665;51.034;13.642;2023-09-12T08:46:21;28.50;1.00
7248;DHT22;3665;51.034;13.642;2023-09-12T08:51:24;28.20;1.00
7248;DHT22;3665;51.034;13.642;2023-09-12T09:01:32;28.50;1.00
7248;DHT22;3665;51.034;13.642;2023-09-12T09:06:24;28.60;1.00
7248;DHT22;3665;51.034;13.642;2023-09-12T09:11:24;28.60;1.00
7248;DHT22;3665;51.034;13.642;2023-09-12T09:16:13;28.80;1.00
7248;DHT22;3665;51.034;13.642;2023-09-12T09:21:18;29.10;1.00
7248;DHT22;3665;51.034;13.642;2023-09-12T09:26:26;29.10;1.00
7248;DHT22;3665;51.034;13.642;2023-09-12T09:31:26;29.30;1.00
7248;DHT22;3665;51.034;13.642;2023-09-12T09:36:35;29.50;1.00
7248;DHT22;3665;51.034;13.642;2023-09-12T09:41:38;29.50;1.00
7248;DHT22;3665;51.034;13.642;2023-09-12T09:46:46;30.00;1.00
7248;DHT22;3665;51.034;13.642;2023-09-12T09:51:58;30.50;1.00
7248;DHT22;3665;51.034;13.642;2023-09-12T10:02:56;31.00;1.00
7248;DHT22;3665;51.034;13.642;2023-09-12T10:24:03;32.00;1.00
7248;DHT22;3665;51.034;13.642;2023-09-12T10:34:37;30.80;1.00
7248;DHT22;3665;51.034;13.642;2023-09-12T10:39:27;31.40;1.00
7248;DHT22;3665;51.034;13.642;2023-09-12T10:44:16;31.40;1.00
7248;DHT22;3665;51.034;13.642;2023-09-12T10:49:01;31.50;1.00
7248;DHT22;3665;51.034;13.642;2023-09-12T10:53:50;31.50;1.00
7248;DHT22;3665;51.034;13.642;2023-09-12T11:04:30;31.40;1.00
7248;DHT22;3665;51.034;13.642;2023-09-12T11:10:17;31.90;1.00
7248;DHT22;3665;51.034;13.642;2023-09-12T11:15:11;32.10;1.00
7248;DHT22;3665;51.034;13.642;2023-09-12T11:20:03;32.00;1.00
7248;DHT22;3665;51.034;13.642;2023-09-12T11:36:17;31.60;1.00
7248;DHT22;3665;51.034;13.642;2023-09-12T11:41:38;31.70;1.00
7248;DHT22;3665;51.034;13.642;2023-09-12T11:47:32;31.20;1.00
7248;DHT22;3665;51.034;13.642;2023-09-12T11:52:27;31.30;1.00
7248;DHT22;3665;51.034;13.642;2023-09-12T11:57:15;31.30;1.00
7248;DHT22;3665;51.034;13.642;2023-09-12T12:02:06;30.90;1.00
7248;DHT22;3665;51.034;13.642;2023-09-12T12:12:30;31.00;1.00
7248;DHT22;3665;51.034;13.642;2023-09-12T12:17:16;31.10;1.00
7248;DHT22;3665;51.034;13.642;2023-09-12T12:22:08;31.30;1.00
7248;DHT22;3665;51.034;13.642;2023-09-12T12:27:00;31.20;1.00
7248;DHT22;3665;51.034;13.642;2023-09-12T12:37:20;30.80;1.00
7248;DHT22;3665;51.034;13.642;2023-09-12T12:42:20;30.80;1.00
7248;DHT22;3665;51.034;13.642;2023-09-12T12:47:08;30.90;1.00
7248;DHT22;3665;51.034;13.642;2023-09-12T12:52:02;31.20;1.00
7248;DHT22;3665;51.034;13.642;2023-09-12T12:57:04;31.00;1.00
7248;DHT22;3665;51.034;13.642;2023-09-12T13:12:28;31.00;1.00
7248;DHT22;3665;51.034;13.642;2023-09-12T13:22:49;31.10;1.00
7248;DHT22;3665;51.034;13.642;2023-09-12T13:27:42;31.10;1.00
7248;DHT22;3665;51.034;13.642;2023-09-12T13:32:30;30.90;1.00
7248;DHT22;3665;51.034;13.642;2023-09-12T13:37:51;30.80;1.00
7248;DHT22;3665;51.034;13.642;2023-09-12T13:42:38;30.70;1.00
7248;DHT22;3665;51.034;13.642;2023-09-12T13:47:48;30.70;1.00
7248;DHT22;3665;51.034;13.642;2023-09-12T13:52:53;30.90;1.00
7248;DHT22;3665;51.034;13.642;2023-09-12T13:57:49;31.00;1.00
7248;DHT22;3665;51.034;13.642;2023-09-12T14:07:56;30.80;1.00
7248;DHT22;3665;51.034;13.642;2023-09-12T14:12:44;30.60;1.00
7248;DHT22;3665;51.034;13.642;2023-09-12T14:17:33;30.70;1.00
7248;DHT22;3665;51.034;13.642;2023-09-12T14:22:23;30.80;1.00
7248;DHT22;3665;51.034;13.642;2023-09-12T14:27:28;30.70;1.00
7248;DHT22;3665;51.034;13.642;2023-09-12T14:32:44;30.50;1.00
7248;DHT22;3665;51.034;13.642;2023-09-12T14:37:31;30.30;1.00
7248;DHT22;3665;51.034;13.642;2023-09-12T14:42:22;30.20;1.00
7248;DHT22;3665;51.034;13.642;2023-09-12T14:47:09;30.10;1.00
7248;DHT22;3665;51.034;13.642;2023-09-12T14:51:59;29.90;1.00
7248;DHT22;3665;51.034;13.642;2023-09-12T14:56:46;29.60;1.00
7248;DHT22;3665;51.034;13.642;2023-09-12T15:01:36;29.40;1.00
7248;DHT22;3665;51.034;13.642;2023-09-12T15:06:21;29.20;1.00
7248;DHT22;3665;51.034;13.642;2023-09-12T15:11:08;29.10;1.00
7248;DHT22;3665;51.034;13.642;2023-09-12T15:15:55;28.90;1.00
7248;DHT22;3665;51.034;13.642;2023-09-12T15:20:44;28.90;1.00
7248;DHT22;3665;51.034;13.642;2023-09-12T15:25:36;28.90;1.00
7248;DHT22;3665;51.034;13.642;2023-09-12T15:30:20;28.70;1.00
7248;DHT22;3665;51.034;13.642;2023-09-12T15:35:10;28.50;1.00
7248;DHT22;3665;51.034;13.642;2023-09-12T15:39:57;28.30;1.00
7248;DHT22;3665;51.034;13.642;2023-09-12T15:44:45;28.30;1.00
7248;DHT22;3665;51.034;13.642;2023-09-12T15:49:48;28.30;1.00
7248;DHT22;3665;51.034;13.642;2023-09-12T15:54:37;28.30;1.00
7248;DHT22;3665;51.034;13.642;2023-09-12T15:59:27;28.40;1.00
7248;DHT22;3665;51.034;13.642;2023-09-12T16:04:13;28.20;1.00
7248;DHT22;3665;51.034;13.642;2023-09-12T16:09:01;28.00;1.00
7248;DHT22;3665;51.034;13.642;2023-09-12T16:13:47;27.80;1.00
7248;DHT22;3665;51.034;13.642;2023-09-12T16:18:52;27.50;1.00
7248;DHT22;3665;51.034;13.642;2023-09-12T16:23:39;27.00;1.00
7248;DHT22;3665;51.034;13.642;2023-09-12T16:28:29;26.60;1.00
7248;DHT22;3665;51.034;13.642;2023-09-12T16:33:17;26.20;1.00
7248;DHT22;3665;51.034;13.642;2023-09-12T16:43:24;25.50;1.00
7248;DHT22;3665;51.034;13.642;2023-09-12T16:48:14;25.20;1.00
7248;DHT22;3665;51.034;13.642;2023-09-12T16:53:00;25.10;1.00
7248;DHT22;3665;51.034;13.642;2023-09-12T16:57:49;24.90;1.00
7248;DHT22;3665;51.034;13.642;2023-09-12T17:02:36;24.60;1.00
7248;DHT22;3665;51.034;13.642;2023-09-12T17:07:26;24.30;1.00
7248;DHT22;3665;51.034;13.642;2023-09-12T17:12:12;24.00;1.00
7248;DHT22;3665;51.034;13.642;2023-09-12T17:17:01;23.70;1.00
7248;DHT22;3665;51.034;13.642;2023-09-12T17:21:51;23.40;1.00
7248;DHT22;3665;51.034;13.642;2023-09-12T17:26:37;23.10;1.00
7248;DHT22;3665;51.034;13.642;2023-09-12T17:31:23;22.80;1.00
7248;DHT22;3665;51.034;13.642;2023-09-12T17:36:11;22.60;1.00
7248;DHT22;3665;51.034;13.642;2023-09-12T17:41:02;22.30;1.00
7248;DHT22;3665;51.034;13.642;2023-09-12T17:45:51;22.10;1.00
7248;DHT22;3665;51.034;13.642;2023-09-12T17:50:52;21.90;1.00
7248;DHT22;3665;51.034;13.642;2023-09-12T17:55:43;21.60;1.00
7248;DHT22;3665;51.034;13.642;2023-09-12T18:00:27;21.50;1.00
7248;DHT22;3665;51.034;13.642;2023-09-12T18:05:21;21.30;1.00
7248;DHT22;3665;51.034;13.642;2023-09-12T18:10:22;21.10;1.00
7248;DHT22;3665;51.034;13.642;2023-09-12T18:15:11;21.00;1.00
7248;DHT22;3665;51.034;13.642;2023-09-12T18:19:58;20.90;1.00
7248;DHT22;3665;51.034;13.642;2023-09-12T18:24:43;20.90;1.00
7248;DHT22;3665;51.034;13.642;2023-09-12T18:29:32;20.80;1.00
7248;DHT22;3665;51.034;13.642;2023-09-12T18:34:19;20.80;1.00
7248;DHT22;3665;51.034;13.642;2023-09-12T18:39:07;20.90;1.00
7248;DHT22;3665;51.034;13.642;2023-09-12T18:43:55;20.90;1.00
7248;DHT22;3665;51.034;13.642;2023-09-12T18:49:02;20.90;1.00
7248;DHT22;3665;51.034;13.642;2023-09-12T18:53:52;20.90;1.00
7248;DHT22;3665;51.034;13.642;2023-09-12T18:58:36;20.80;1.00
7248;DHT22;3665;51.034;13.642;2023-09-12T19:03:27;20.60;1.00
7248;DHT22;3665;51.034;13.642;2023-09-12T19:08:13;20.50;1.00
7248;DHT22;3665;51.034;13.642;2023-09-12T19:13:03;20.40;1.00
7248;DHT22;3665;51.034;13.642;2023-09-12T19:17:48;20.30;1.00
7248;DHT22;3665;51.034;13.642;2023-09-12T19:22:57;20.30;1.00
7248;DHT22;3665;51.034;13.642;2023-09-12T19:27:55;20.20;1.00
7248;DHT22;3665;51.034;13.642;2023-09-12T19:32:51;20.00;1.00
7248;DHT22;3665;51.034;13.642;2023-09-12T19:37:48;20.00;1.00
7248;DHT22;3665;51.034;13.642;2023-09-12T19:42:43;19.90;1.00
7248;DHT22;3665;51.034;13.642;2023-09-12T19:47:46;19.80;1.00
7248;DHT22;3665;51.034;13.642;2023-09-12T19:52:46;19.80;1.00
7248;DHT22;3665;51.034;13.642;2023-09-12T19:57:32;19.90;1.00
7248;DHT22;3665;51.034;13.642;2023-09-12T20:02:23;19.90;1.00
7248;DHT22;3665;51.034;13.642;2023-09-12T20:07:11;19.80;1.00
7248;DHT22;3665;51.034;13.642;2023-09-12T20:17:19;19.70;1.00
7248;DHT22;3665;51.034;13.642;2023-09-12T20:22:03;19.50;1.00
7248;DHT22;3665;51.034;13.642;2023-09-12T20:26:55;19.60;1.00
7248;DHT22;3665;51.034;13.642;2023-09-12T20:31:41;19.70;1.00
7248;DHT22;3665;51.034;13.642;2023-09-12T20:36:29;19.70;1.00
7248;DHT22;3665;51.034;13.642;2023-09-12T20:41:16;19.70;1.00
7248;DHT22;3665;51.034;13.642;2023-09-12T20:46:06;19.50;1.00
7248;DHT22;3665;51.034;13.642;2023-09-12T20:50:52;19.40;1.00
7248;DHT22;3665;51.034;13.642;2023-09-12T20:56:00;19.50;1.00
7248;DHT22;3665;51.034;13.642;2023-09-12T21:01:05;19.90;1.00
7248;DHT22;3665;51.034;13.642;2023-09-12T21:05:49;20.00;1.00
7248;DHT22;3665;51.034;13.642;2023-09-12T21:10:35;20.00;1.00
7248;DHT22;3665;51.034;13.642;2023-09-12T21:15:27;20.10;1.00
7248;DHT22;3665;51.034;13.642;2023-09-12T21:20:12;20.30;1.00
7248;DHT22;3665;51.034;13.642;2023-09-12T21:25:05;20.40;1.00
7248;DHT22;3665;51.034;13.642;2023-09-12T21:29:49;20.20;1.00
7248;DHT22;3665;51.034;13.642;2023-09-12T21:34:38;20.00;1.00
7248;DHT22;3665;51.034;13.642;2023-09-12T21:39:25;19.70;1.00
7248;DHT22;3665;51.034;13.642;2023-09-12T21:44:12;19.50;1.00
7248;DHT22;3665;51.034;13.642;2023-09-12T21:49:05;19.40;1.00
7248;DHT22;3665;51.034;13.642;2023-09-12T21:54:06;19.40;1.00
7248;DHT22;3665;51.034;13.642;2023-09-12T21:58:51;19.40;1.00
7248;DHT22;3665;51.034;13.642;2023-09-12T22:03:35;19.40;1.00
7248;DHT22;3665;51.034;13.642;2023-09-12T22:08:27;19.40;1.00
7248;DHT22;3665;51.034;13.642;2023-09-12T22:13:14;19.40;1.00
7248;DHT22;3665;51.034;13.642;2023-09-12T22:18:00;19.40;1.00
7248;DHT22;3665;51.034;13.642;2023-09-12T22:22:50;19.40;1.00
7248;DHT22;3665;51.034;13.642;2023-09-12T22:27:41;19.40;1.00
7248;DHT22;3665;51.034;13.642;2023-09-12T22:32:26;19.20;1.00
7248;DHT22;3665;51.034;13.642;2023-09-12T22:37:16;19.10;1.00
7248;DHT22;3665;51.034;13.642;2023-09-12T22:42:02;19.00;1.00
7248;DHT22;3665;51.034;13.642;2023-09-12T22:46:57;19.00;1.00
7248;DHT22;3665;51.034;13.642;2023-09-12T22:51:55;19.00;1.00
7248;DHT22;3665;51.034;13.642;2023-09-12T22:56:42;19.00;1.00
7248;DHT22;3665;51.034;13.642;2023-09-12T23:01:29;19.00;1.00
7248;DHT22;3665;51.034;13.642;2023-09-12T23:06:15;19.00;1.00
7248;DHT22;3665;51.034;13.642;2023-09-12T23:11:05;19.00;1.00
7248;DHT22;3665;51.034;13.642;2023-09-12T23:15:58;19.00;1.00
7248;DHT22;3665;51.034;13.642;2023-09-12T23:20:42;18.90;1.00
7248;DHT22;3665;51.034;13.642;2023-09-12T23:25:30;18.90;1.00
7248;DHT22;3665;51.034;13.642;2023-09-12T23:30:18;18.90;1.00
7248;DHT22;3665;51.034;13.642;2023-09-12T23:35:09;18.80;1.00
7248;DHT22;3665;51.034;13.642;2023-09-12T23:39:54;18.90;1.00
7248;DHT22;3665;51.034;13.642;2023-09-12T23:44:40;18.90;1.00
7248;DHT22;3665;51.034;13.642;2023-09-12T23:49:32;18.90;1.00
7248;DHT22;3665;51.034;13.642;2023-09-12T23:54:53;18.90;1.00
7248;DHT22;3665;51.034;13.642;2023-09-12T23:59:55;18.90;1.00
